Data for 08/23/2016

Time Sea-Level Adjusted Pressure Absolute Pressure Temperature Relative Humidity Dew Point   
(mb) (inHg) (mb) (inHg) (C) (F) (%) (C) (F)
00:05 1017 30.03 846 24.98 13.4 56.1 27 -5.1 22.8
00:10 1017 30.03 847 25.01 13.4 56.1 28 -4.6 23.8
00:15 1017 30.03 847 25.01 13.5 56.4 27 -5.1 22.8
00:20 1017 30.03 847 25.01 13.6 56.4 26 -5.3 22.5
00:25 1017 30.03 847 25.01 13.6 56.4 28 -4.7 23.6
00:30 1017 30.03 847 25.01 13.4 56.1 28 -4.8 23.4
00:35 1018 30.06 847 25.01 13.3 55.9 28 -4.7 23.5
00:40 1018 30.06 847 25.01 13.3 55.9 28 -4.9 23.1
00:45 1018 30.06 847 25.01 13.3 55.9 28 -4.9 23.2
00:50 1018 30.06 847 25.01 13.2 55.8 28 -4.7 23.5
00:55 1018 30.06 847 25.01 13.1 55.5 29 -4.5 23.9
01:00 1018 30.06 847 25.01 12.9 55.2 30 -4.3 24.2
01:05 1018 30.06 847 25.01 12.8 55 29 -4.6 23.7
01:10 1018 30.06 847 25.01 12.6 54.7 29 -4.7 23.5
01:15 1018 30.06 847 25.01 12.6 54.8 30 -4.6 23.8
01:20 1018 30.06 847 25.01 12.5 54.4 30 -4.5 24
01:25 1018 30.06 847 25.01 12.5 54.5 30 -4.7 23.6
01:30 1018 30.06 847 25.01 12.5 54.5 32 -3.7 25.4
01:35 1018 30.06 847 25.01 12.3 54.1 32 -4 24.8
01:40 1018 30.06 847 25.01 12.1 53.8 34 -3.4 25.9
01:45 1018 30.06 847 25.01 12.1 53.7 32 -4.3 24.3
01:50 1018 30.06 847 25.01 12.3 54.1 31 -4.3 24.2
01:55 1018 30.06 847 25.01 12.3 54.1 31 -4.5 23.9
02:00 1018 30.06 847 25.01 12.2 53.9 32 -4.2 24.5
02:05 1018 30.06 847 25.01 12.1 53.7 31 -4.4 24.1
02:10 1018 30.06 847 25.01 12.3 54.1 31 -4.2 24.5
02:15 1018 30.06 847 25.01 12.4 54.3 31 -4.4 24.2
02:20 1018 30.06 847 25.01 12.4 54.2 32 -3.8 25.1
02:25 1018 30.06 847 25.01 12.2 54 32 -4 24.7
02:30 1018 30.06 848 25.04 12 53.7 33 -3.8 25.1
02:35 1018 30.06 848 25.04 11.7 53.1 34 -3.6 25.4
02:40 1018 30.06 848 25.04 11.6 53 33 -4 24.8
02:45 1018 30.06 848 25.04 11.6 52.9 34 -3.8 25.1
02:50 1018 30.06 848 25.04 11.6 52.8 34 -3.8 25.1
02:55 1018 30.06 848 25.04 11.7 53.1 32 -4.3 24.3
03:00 1019 30.09 848 25.04 12.2 53.9 30 -5 22.9
03:05 1019 30.09 848 25.04 12.5 54.6 29 -4.9 23.1
03:10 1019 30.09 848 25.04 12.8 55 28 -5 22.9
03:15 1019 30.09 848 25.04 12.9 55.1 28 -5 23
03:20 1019 30.09 848 25.04 12.9 55.1 28 -5 23
03:25 1019 30.09 848 25.04 12.8 55.1 28 -5.3 22.5
03:30 1019 30.09 848 25.04 12.9 55.1 28 -5.3 22.5
03:35 1019 30.09 848 25.04 12.7 54.9 28 -5.1 22.8
03:40 1019 30.09 848 25.04 12.6 54.6 29 -4.9 23.3
03:45 1019 30.09 848 25.04 12.3 54.1 31 -4.4 24.1
03:50 1019 30.09 848 25.04 11.6 52.9 33 -4.2 24.5
03:55 1019 30.09 848 25.04 10.8 51.5 35 -3.9 25
04:00 1019 30.09 848 25.04 10.5 50.8 36 -4 24.8
04:05 1019 30.09 848 25.04 10.3 50.6 38 -3.4 25.9
04:10 1019 30.09 848 25.04 10.1 50.1 38 -3.6 25.5
04:15 1019 30.09 848 25.04 10 50 36 -4.2 24.4
04:20 1019 30.09 848 25.04 10.3 50.5 35 -4.4 24.2
04:25 1019 30.09 849 25.07 10.5 50.8 36 -4.1 24.6
04:30 1019 30.09 849 25.07 10.1 50.2 36 -4.1 24.7
04:35 1020 30.12 849 25.07 9.8 49.7 37 -4 24.7
04:40 1020 30.12 849 25.07 9.6 49.3 39 -3.6 25.5
04:45 1020 30.12 849 25.07 9.4 49 39 -3.8 25.2
04:50 1020 30.12 849 25.07 9.5 49.1 38 -3.9 24.9
04:55 1020 30.12 849 25.07 9.4 48.9 39 -3.7 25.4
05:00 1020 30.12 849 25.07 9.1 48.5 40 -3.8 25.2
05:05 1020 30.12 849 25.07 9.2 48.5 40 -3.9 25
05:10 1020 30.12 849 25.07 9.1 48.4 39 -4.1 24.6
05:15 1020 30.12 849 25.07 9.1 48.4 39 -4.2 24.5
05:20 1020 30.12 849 25.07 9.1 48.3 40 -3.8 25.2
05:25 1020 30.12 849 25.07 8.9 48.1 41 -3.5 25.8
05:30 1020 30.12 849 25.07 8.6 47.5 43 -3.4 26
05:35 1020 30.12 849 25.07 8.5 47.3 43 -3.5 25.8
05:40 1020 30.12 849 25.07 8.4 47.1 43 -3.3 26
05:45 1020 30.12 849 25.07 8.3 47 44 -3.3 26
05:50 1020 30.12 850 25.1 8.2 46.7 44 -3.4 26
05:55 1020 30.12 850 25.1 8 46.4 45 -3.3 26.1
06:00 1020 30.12 849 25.07 8 46.4 43 -3.7 25.4
06:05 1020 30.12 850 25.1 8.1 46.5 44 -3.6 25.6
06:10 1020 30.12 850 25.1 8.2 46.8 43 -3.5 25.7
06:15 1020 30.12 850 25.1 8.3 46.9 45 -3.1 26.5
06:20 1021 30.15 850 25.1 8.3 46.9 43 -3.7 25.4
06:25 1021 30.15 850 25.1 8.6 47.4 42 -3.6 25.5
06:30 1021 30.15 850 25.1 8.8 47.8 41 -3.6 25.4
06:35 1021 30.15 850 25.1 9.1 48.4 41 -3.5 25.7
06:40 1021 30.15 850 25.1 9.5 49.2 41 -3.2 26.3
06:45 1021 30.15 850 25.1 9.9 49.8 39 -3.4 25.9
06:50 1021 30.15 850 25.1 10 49.9 40 -3.1 26.4
06:55 1021 30.15 850 25.1 10.2 50.4 39 -3 26.7
07:00 1021 30.15 850 25.1 10.3 50.5 39 -2.9 26.7
07:05 1021 30.15 850 25.1 10.4 50.8 39 -2.9 26.8
07:10 1021 30.15 850 25.1 10.8 51.4 37 -3.2 26.2
07:15 1021 30.15 850 25.1 11.3 52.3 36 -3.1 26.4
07:20 1021 30.15 851 25.13 11.7 53.1 36 -2.9 26.7
07:25 1021 30.15 851 25.13 12.2 53.9 33 -3.5 25.7
07:30 1021 30.15 851 25.13 12.5 54.5 31 -4.3 24.3
07:35 1022 30.18 851 25.13 12.5 54.5 30 -4.5 23.9
07:40 1022 30.18 851 25.13 12.6 54.7 29 -4.7 23.5
07:45 1022 30.18 851 25.13 13.1 55.6 28 -5.1 22.9
07:50 1022 30.18 851 25.13 13.1 55.5 28 -4.8 23.3
07:55 1021 30.15 851 25.13 13.2 55.8 28 -4.7 23.5
08:00 1022 30.18 851 25.13 13.6 56.5 27 -5 23
08:05 1022 30.18 851 25.13 14.1 57.4 27 -4.7 23.6
08:10 1022 30.18 851 25.13 13.9 57 28 -4.5 24
08:15 1022 30.18 851 25.13 14.2 57.6 27 -4.3 24.2
08:20 1022 30.18 851 25.13 14 57.1 29 -3.8 25.2
08:25 1022 30.18 851 25.13 13.7 56.7 28 -4.2 24.5
08:30 1022 30.18 851 25.13 14.5 58.2 27 -4.3 24.3
08:35 1022 30.18 851 25.13 15.2 59.3 26 -3.9 25
08:40 1022 30.18 851 25.13 15.2 59.3 25 -4.9 23.2
08:45 1022 30.18 851 25.13 15.3 59.5 25 -4.4 24.1
08:50 1022 30.18 851 25.13 15.6 60.1 24 -5 22.9
08:55 1022 30.18 851 25.13 16 60.7 25 -4.1 24.7
09:00 1022 30.18 851 25.13 16.1 60.9 23 -4.9 23.1
09:05 1022 30.18 851 25.13 16.3 61.3 23 -4.8 23.4
09:10 1022 30.18 851 25.13 16.4 61.6 22 -5.3 22.4
09:15 1022 30.18 851 25.13 16.6 61.8 21 -5.5 22.2
09:20 1022 30.18 851 25.13 16.5 61.8 24 -4.1 24.6
09:25 1022 30.18 851 25.13 17 62.6 22 -4.8 23.4
09:30 1022 30.18 851 25.13 16.7 62 23 -4.7 23.5
09:35 1022 30.18 851 25.13 16.9 62.5 22 -4.9 23.1
09:40 1022 30.18 851 25.13 17.2 62.9 22 -4.9 23.2
09:45 1022 30.18 851 25.13 17.1 62.8 22 -4.6 23.7
09:50 1022 30.18 851 25.13 17.4 63.2 21 -5.2 22.7
09:55 1022 30.18 851 25.13 17.6 63.7 22 -4.3 24.3
10:00 1022 30.18 851 25.13 17.1 62.7 22 -4.5 24
10:05 1022 30.18 851 25.13 17.5 63.4 21 -4.8 23.3
10:10 1022 30.18 851 25.13 17 62.6 23 -3.9 24.9
10:15 1022 30.18 851 25.13 16.4 61.6 23 -4.7 23.5
10:20 1022 30.18 851 25.13 17.1 62.7 22 -4.6 23.7
10:25 1022 30.18 851 25.13 17.4 63.4 23 -3.8 25.1
10:30 1022 30.18 851 25.13 17.7 63.9 21 -5 23.1
10:35 1022 30.18 851 25.13 17.7 63.9 22 -4.2 24.4
10:40 1022 30.18 851 25.13 17.9 64.3 20 -5.1 22.8
10:45 1022 30.18 851 25.13 17.8 64.1 22 -4.3 24.2
10:50 1022 30.18 851 25.13 17.6 63.7 22 -4.2 24.4
10:55 1022 30.18 851 25.13 18.1 64.6 23 -3.5 25.7
11:00 1022 30.18 851 25.13 18.3 65 22 -3.7 25.3
11:05 1022 30.18 851 25.13 18.3 65 21 -4.4 24.1
11:10 1022 30.18 851 25.13 18.7 65.6 20 -4.7 23.5
11:15 1022 30.18 851 25.13 19 66.2 21 -3.9 24.9
11:20 1022 30.18 851 25.13 18.5 65.3 21 -3.9 24.9
11:25 1021 30.15 851 25.13 18.7 65.6 20 -4.6 23.7
11:30 1021 30.15 851 25.13 18.6 65.5 21 -4.1 24.6
11:35 1021 30.15 851 25.13 19 66.2 20 -4.6 23.8
11:40 1021 30.15 851 25.13 19.7 67.4 20 -4.1 24.7
11:45 1021 30.15 851 25.13 19.8 67.6 19 -4.4 24.1
11:50 1021 30.15 850 25.1 19.9 67.9 18 -5 22.9
11:55 1021 30.15 850 25.1 20 68 18 -4.7 23.5
12:00 1021 30.15 850 25.1 20.1 68.1 19 -4.4 24.1
12:05 1021 30.15 850 25.1 20.2 68.4 18 -4.5 23.9
12:10 1021 30.15 850 25.1 19.8 67.6 19 -4.4 24.1
12:15 1021 30.15 850 25.1 19.7 67.5 19 -4.1 24.7
12:20 1021 30.15 850 25.1 20.4 68.8 19 -3.9 24.9
12:25 1021 30.15 850 25.1 19.9 67.8 19 -3.9 24.9
12:30 1021 30.15 850 25.1 20 68 19 -4.4 24.1
12:35 1021 30.15 850 25.1 20.5 68.8 18 -4.6 23.7
12:40 1021 30.15 850 25.1 20.6 69 17 -5.1 22.8
12:45 1021 30.15 850 25.1 20.4 68.7 19 -4.1 24.6
12:50 1021 30.15 850 25.1 20.2 68.3 18 -5 23
12:55 1021 30.15 850 25.1 20.5 68.8 17 -5.4 22.3
13:00 1021 30.15 850 25.1 20.3 68.5 17 -5.6 21.9
13:05 1021 30.15 850 25.1 21.1 70 19 -3.5 25.7
13:10 1021 30.15 850 25.1 21.1 70 18 -4.3 24.3
13:15 1021 30.15 850 25.1 21.2 70.2 18 -3.9 25
13:20 1021 30.15 850 25.1 21.3 70.3 17 -4.6 23.8
13:25 1021 30.15 850 25.1 21.1 69.9 18 -4.3 24.3
13:30 1021 30.15 850 25.1 20.7 69.3 16 -6.1 21
13:35 1021 30.15 850 25.1 21 69.7 16 -5.7 21.7
13:40 1021 30.15 850 25.1 21.6 70.8 17 -4.1 24.6
13:45 1021 30.15 850 25.1 22 71.6 17 -3.8 25.1
13:50 1021 30.15 850 25.1 22 71.5 15 -5.4 22.3
13:55 1021 30.15 850 25.1 21.9 71.4 14 -6.5 20.2
14:00 1021 30.15 850 25.1 20.7 69.3 15 -6.3 20.6
14:05 1021 30.15 850 25.1 21 69.8 14 -7.1 19.3
14:10 1021 30.15 850 25.1 21.6 70.8 14 -6.9 19.7
14:15 1021 30.15 850 25.1 21.4 70.6 14 -7.2 19
14:20 1021 30.15 850 25.1 21.5 70.7 15 -6.2 20.8
14:25 1021 30.15 850 25.1 21.9 71.4 14 -7.1 19.2
14:30 1021 30.15 850 25.1 22.2 72 14 -6.7 20
14:35 1021 30.15 850 25.1 22.1 71.9 14 -6.9 19.6
14:40 1021 30.15 850 25.1 22.3 72.1 13 -6.9 19.6
14:45 1021 30.15 850 25.1 22 71.6 14 -6.4 20.5
14:50 1021 30.15 850 25.1 20.8 69.5 16 -5.8 21.6
14:55 1021 30.15 850 25.1 21.5 70.8 15 -6.4 20.5
15:00 1021 30.15 850 25.1 22.3 72.1 14 -6.6 20.1
15:05 1021 30.15 850 25.1 22.2 72 13 -6.9 19.6
15:10 1021 30.15 850 25.1 22.4 72.2 13 -6.8 19.8
15:15 1021 30.15 850 25.1 21.7 71 15 -5.9 21.4
15:20 1021 30.15 850 25.1 22 71.6 15 -5.4 22.3
15:25 1021 30.15 850 25.1 21.3 70.4 16 -5.8 21.6
15:30 1021 30.15 850 25.1 21 69.8 15 -6.3 20.7
15:35 1021 30.15 850 25.1 20.4 68.7 16 -6.5 20.3
15:40 1021 30.15 850 25.1 20.6 69.1 15 -6.6 20.2
15:45 1021 30.15 850 25.1 21.1 70 15 -6.5 20.4
15:50 1021 30.15 850 25.1 21.1 70 16 -5.5 22
15:55 1021 30.15 850 25.1 21.5 70.7 16 -5.4 22.3
16:00 1021 30.15 850 25.1 22.2 71.9 15 -5.6 21.8
16:05 1021 30.15 850 25.1 22.4 72.3 15 -5.6 22
16:10 1021 30.15 850 25.1 22.5 72.5 16 -4.3 24.3
16:15 1021 30.15 850 25.1 22.1 71.7 16 -5 23
16:20 1021 30.15 850 25.1 21.8 71.3 17 -4.1 24.6
16:25 1021 30.15 850 25.1 21.6 70.8 17 -4.4 24.1
16:30 1021 30.15 850 25.1 21.7 71.1 17 -4.4 24
16:35 1021 30.15 850 25.1 21.9 71.4 16 -4.7 23.5
16:40 1021 30.15 850 25.1 21.9 71.3 17 -4.4 24.1
16:45 1021 30.15 850 25.1 21.9 71.4 16 -5 22.9
16:50 1021 30.15 850 25.1 21.6 70.9 17 -4.4 24
16:55 1021 30.15 850 25.1 21.3 70.4 17 -4.5 23.9
17:00 1021 30.15 850 25.1 21.2 70.1 17 -4.4 24.1
17:05 1021 30.15 850 25.1 21.2 70.1 18 -4.2 24.5
17:10 1021 30.15 850 25.1 21.2 70.2 17 -4.3 24.2
17:15 1021 30.15 850 25.1 21.1 69.9 18 -4.3 24.2
17:20 1021 30.15 850 25.1 21 69.9 19 -3.6 25.6
17:25 1021 30.15 850 25.1 21 69.8 18 -3.7 25.3
17:30 1021 30.15 850 25.1 20.9 69.6 19 -3.6 25.4
17:35 1021 30.15 850 25.1 20.7 69.2 19 -3.5 25.7
17:40 1021 30.15 850 25.1 20.6 69 19 -3.5 25.6
17:45 1021 30.15 850 25.1 20.5 68.9 20 -3.3 26.1
17:50 1021 30.15 851 25.13 20.2 68.4 22 -1.8 28.8
17:55 1021 30.15 851 25.13 19.8 67.6 22 -2.4 27.7
18:00 1021 30.15 851 25.13 19.4 66.9 23 -2.2 28.1
18:05 1021 30.15 851 25.13 19.3 66.7 23 -2.4 27.6
18:10 1021 30.15 851 25.13 19.2 66.5 23 -2.2 28
18:15 1021 30.15 851 25.13 19.2 66.6 22 -2.6 27.4
18:20 1022 30.18 851 25.13 19.3 66.8 23 -2.4 27.6
18:25 1022 30.18 851 25.13 19.4 66.9 23 -2.1 28.2
18:30 1022 30.18 851 25.13 19.3 66.7 23 -2.1 28.2
18:35 1022 30.18 851 25.13 19.1 66.4 24 -1.9 28.5
18:40 1022 30.18 851 25.13 19.2 66.5 24 -1.8 28.7
18:45 1022 30.18 851 25.13 19 66.2 24 -1.7 28.9
18:50 1022 30.18 851 25.13 18.9 66.1 25 -1.5 29.4
18:55 1022 30.18 851 25.13 18.8 65.9 25 -1.2 29.8
19:00 1022 30.18 851 25.13 18.7 65.7 25 -1.3 29.6
19:05 1022 30.18 851 25.13 18.6 65.5 26 -1.3 29.7
19:10 1022 30.18 851 25.13 18.4 65.2 27 -0.9 30.3
19:15 1022 30.18 851 25.13 18.3 64.9 26 -1.2 29.8
19:20 1022 30.18 851 25.13 18.2 64.8 26 -1.7 29
19:25 1022 30.18 851 25.13 18.1 64.6 27 -1.1 30
19:30 1022 30.18 851 25.13 18 64.3 27 -1.2 29.8
19:35 1022 30.18 851 25.13 17.9 64.3 27 -1 30.2
19:40 1022 30.18 852 25.16 17.7 63.9 28 -0.9 30.4
19:45 1022 30.18 852 25.16 17.5 63.6 29 -0.8 30.6
19:50 1022 30.18 852 25.16 17.4 63.3 32 0.6 33.2
19:55 1023 30.21 852 25.16 16.9 62.4 32 0.3 32.6
20:00 1023 30.21 852 25.16 16.3 61.3 34 0.4 32.8
20:05 1023 30.21 852 25.16 16 60.9 36 0.9 33.6
20:10 1023 30.21 852 25.16 15.3 59.6 40 1.8 35.3
20:15 1023 30.21 852 25.16 14.6 58.2 40 1.1 33.9
20:20 1023 30.21 852 25.16 14.5 58.1 35 -0.5 31.1
20:25 1023 30.21 852 25.16 14.7 58.5 35 -0.7 30.8
20:30 1023 30.21 852 25.16 15.1 59.3 35 -0 32
20:35 1023 30.21 852 25.16 15.1 59.3 37 0.5 32.9
20:40 1023 30.21 853 25.19 14.8 58.7 36 0.1 32.2
20:45 1023 30.21 853 25.19 15 58.9 34 -0.6 31
20:50 1023 30.21 853 25.19 15.3 59.5 34 -0.2 31.7
20:55 1023 30.21 853 25.19 15.2 59.4 36 0.2 32.4
21:00 1024 30.24 853 25.19 15.1 59.1 37 0.5 32.9
21:05 1024 30.24 853 25.19 15 59 38 0.7 33.3
21:10 1024 30.24 853 25.19 14.9 58.8 38 0.9 33.6
21:15 1024 30.24 853 25.19 14.8 58.7 39 0.9 33.7
21:20 1024 30.24 853 25.19 14.8 58.7 39 1 33.9
21:25 1024 30.24 853 25.19 14.7 58.5 40 1.2 34.2
21:30 1024 30.24 853 25.19 14.6 58.3 40 1.4 34.5
21:35 1024 30.24 853 25.19 14.4 58 43 2.1 35.9
21:40 1024 30.24 853 25.19 14.2 57.6 42 1.7 35
21:45 1024 30.24 853 25.19 14.2 57.5 42 1.5 34.7
21:50 1024 30.24 853 25.19 14.3 57.7 42 1.6 34.8
21:55 1024 30.24 853 25.19 14.2 57.6 42 1.6 34.9
22:00 1024 30.24 853 25.19 14.2 57.5 42 1.6 35
22:05 1024 30.24 853 25.19 14 57.2 43 1.8 35.2
22:10 1024 30.24 853 25.19 13.9 56.9 43 1.7 35.1
22:15 1024 30.24 853 25.19 13.8 56.8 44 1.8 35.2
22:20 1024 30.24 853 25.19 13.7 56.6 44 1.9 35.3
22:25 1024 30.24 854 25.22 13.7 56.6 44 1.8 35.2
22:30 1024 30.24 854 25.22 13.6 56.5 45 1.8 35.3
22:35 1024 30.24 854 25.22 13.5 56.4 45 1.8 35.2
22:40 1024 30.24 854 25.22 13.6 56.5 44 1.8 35.2
22:45 1024 30.24 854 25.22 13.7 56.6 44 1.8 35.3
22:50 1024 30.24 854 25.22 13.7 56.6 44 1.9 35.3
22:55 1025 30.27 854 25.22 13.5 56.4 45 2.1 35.7
23:00 1025 30.27 854 25.22 13.3 56 46 1.9 35.5
23:05 1025 30.27 854 25.22 13.3 55.9 46 2 35.7
23:10 1025 30.27 854 25.22 13.1 55.5 47 2.1 35.8
23:15 1025 30.27 854 25.22 13 55.4 47 2 35.7
23:20 1025 30.27 854 25.22 13.1 55.6 47 2.1 35.7
23:25 1025 30.27 854 25.22 13 55.4 48 2.2 36
23:30 1025 30.27 854 25.22 12.9 55.1 48 2.1 35.8
23:35 1025 30.27 854 25.22 12.8 55 48 2.1 35.8
23:40 1025 30.27 854 25.22 12.7 54.8 48 2.1 35.7
23:45 1025 30.27 854 25.22 12.7 54.8 48 2.1 35.7
23:50 1025 30.27 854 25.22 12.7 54.9 48 2.1 35.8
23:55 1025 30.27 854 25.22 12.7 54.8 48 2.1 35.8
24:00 1025 30.27 854 25.22 12.6 54.6 49 2.2 35.9